Branch, Canada
Current Conditions -  °F | °C
As of 6:00 AM on Wednesday 22 Oct 2014 (Local Time) from CYYT Reporting Station
Broken Clouds Broken Clouds  
Wind Chill: 35°   Ceiling: 23000
Heat Index: 39°   Visibility: 15mi
Dew Point: 36°   Wind: 6mph
Humidity: 87%   Direction: 290°WNW
Pressure: 30.36"   Gusts: NA
Location:  46.88°N, 53.97°W
Report Text: CYYT 220800Z 29005KT 15SM BKN230 04/02 A3036 RMK CI5 SLP286
Loading
Personal Weather Stations






























Interactive Weather Map
Tropical Storm Tracking
New forecast layout! Learn more

10-Day Weather Forecast

Advertisements
Track Severe Weather on mobile